Time;durP1;ratioP1;P1;durP2;ratioP2;P2;SDS_P1;SDS_P2;PMS_P1;PMS_P2;Temp;Humidity;BMP_temperature;BMP_pressure;BME280_temperature;BME280_humidity;BME280_pressure;Samples;Min_cycle;Max_cycle;Signal;HPM_P1;HPM_P2
2023/01/17 00:02:01;;;;;;;13.48;8.60;;;;;;;15.51;56.10;97941.25;5070207;28;20507;-51
2023/01/17 00:10:07;;;;;;;14.77;9.13;;;;;;;15.42;55.85;97945.84;5071410;28;20055;-53
2023/01/17 00:12:35;;;;;;;15.60;9.25;;;;;;;15.39;56.07;97938.16;5071565;28;20127;-52
2023/01/17 00:15:05;;;;;;;15.77;8.85;;;;;;;15.37;56.05;97944.72;5071440;28;20052;-52
2023/01/17 00:17:33;;;;;;;14.18;9.02;;;;;;;15.36;56.06;97943.88;5071425;28;20090;-55
2023/01/17 01:35:49;;;;;;;14.30;8.88;;;;;;;14.74;56.26;97935.00;5073965;28;20393;-53
2023/01/17 01:38:19;;;;;;;13.75;9.10;;;;;;;14.72;56.37;97939.72;5073877;28;20045;-55
2023/01/17 01:40:49;;;;;;;16.58;10.68;;;;;;;14.70;55.97;97931.00;5073779;28;20075;-52
2023/01/17 01:43:38;;;;;;;15.15;9.57;;;;;;;14.68;56.18;97947.28;5073765;28;20102;-55
2023/01/17 01:46:07;;;;;;;13.02;8.65;;;;;;;14.67;56.12;97952.81;5073577;28;20438;-54
2023/01/17 01:48:41;;;;;;;12.57;8.77;;;;;;;14.65;56.05;97952.97;5073901;28;20131;-54
2023/01/17 01:51:11;;;;;;;;;;;;;;;14.63;56.44;97954.16;5074127;28;20116;-55
2023/01/17 01:53:46;;;;;;;13.93;8.85;;;;;;;14.58;56.08;97943.97;5073534;28;19921;-54
2023/01/17 01:56:15;;;;;;;13.98;9.50;;;;;;;14.59;55.63;97948.31;5073502;28;20045;-54
2023/01/17 01:58:48;;;;;;;11.57;7.82;;;;;;;14.56;56.19;97937.91;5072059;28;20145;-54
2023/01/17 02:01:16;;;;;;;12.77;8.70;;;;;;;14.55;55.67;97922.84;5073324;28;20045;-52
2023/01/17 02:03:46;;;;;;;14.75;9.07;;;;;;;14.53;55.98;97916.81;5073582;28;20044;-53
2023/01/17 02:06:29;;;;;;;13.75;9.00;;;;;;;14.51;56.03;97910.81;5073184;28;20098;-54
2023/01/17 02:09:03;;;;;;;14.35;9.40;;;;;;;14.50;56.18;97909.13;5073208;28;20048;-54
2023/01/17 02:11:32;;;;;;;12.43;7.80;;;;;;;14.44;56.21;97891.84;5073159;28;20052;-53
2023/01/17 02:14:01;;;;;;;13.18;8.32;;;;;;;14.48;56.34;97887.00;5073052;28;20227;-53
2023/01/17 02:16:45;;;;;;;13.13;8.68;;;;;;;14.46;56.47;97902.41;5073058;28;20059;-53
2023/01/17 02:19:25;;;;;;;;;;;;;;;14.45;56.45;97895.38;5072115;28;20048;-53
2023/01/17 02:22:04;;;;;;;13.07;8.75;;;;;;;14.43;56.39;97898.22;5072918;28;19921;-53
2023/01/17 02:25:03;;;;;;;13.30;8.82;;;;;;;14.41;56.63;97900.25;5071595;28;20044;-52
2023/01/17 02:27:46;;;;;;;12.27;8.00;;;;;;;14.39;56.92;97893.38;5072703;28;20386;-51
2023/01/17 02:30:33;;;;;;;12.98;9.10;;;;;;;14.38;57.07;97902.41;5072644;28;20088;-51
2023/01/17 02:33:06;;;;;;;14.57;9.13;;;;;;;14.37;56.74;97911.47;5072780;28;20481;-53
2023/01/17 02:35:42;;;;;;;13.13;9.00;;;;;;;14.35;56.46;97902.78;5072822;28;20045;-51
2023/01/17 02:38:24;;;;;;;13.95;8.73;;;;;;;14.32;56.63;97902.13;5072673;28;20048;-53
2023/01/17 02:40:57;;;;;;;12.23;8.25;;;;;;;14.30;56.49;97898.78;5072544;28;20052;-53
2023/01/17 02:43:27;;;;;;;15.10;9.63;;;;;;;14.29;56.71;97891.75;5072535;28;20409;-53
2023/01/17 02:45:56;;;;;;;13.23;8.77;;;;;;;14.27;56.48;97893.75;5072466;28;20102;-52
2023/01/17 02:48:27;;;;;;;13.20;8.57;;;;;;;14.25;56.47;97878.84;5072572;28;20143;-53
2023/01/17 02:51:31;;;;;;;11.45;7.78;;;;;;;14.24;56.99;97883.38;5072308;28;20464;-55
2023/01/17 02:54:19;;;;;;;11.75;8.02;;;;;;;14.21;56.87;97877.53;5072427;28;20044;-52
2023/01/17 02:56:57;;;;;;;13.15;8.43;;;;;;;14.15;56.99;97852.22;5070231;28;20063;-52
2023/01/17 02:59:36;;;;;;;12.10;7.45;;;;;;;14.17;56.96;97844.84;5072197;28;20052;-53
2023/01/17 03:02:16;;;;;;;13.05;9.02;;;;;;;14.17;57.00;97852.88;5072451;28;20052;-55
2023/01/17 03:04:49;;;;;;;13.45;8.50;;;;;;;14.14;56.97;97834.47;5072190;28;20489;-55
2023/01/17 03:07:20;;;;;;;10.98;7.60;;;;;;;14.13;57.25;97832.81;5072271;28;20460;-55
2023/01/17 03:09:53;;;;;;;12.45;8.63;;;;;;;14.13;57.22;97822.09;5072122;28;20123;-53
2023/01/17 03:12:21;;;;;;;12.13;7.97;;;;;;;14.08;57.36;97811.03;5072240;28;20413;-55
2023/01/17 03:14:49;;;;;;;11.23;7.30;;;;;;;14.10;57.17;97811.72;5071738;28;20578;-53
2023/01/17 03:17:19;;;;;;;11.25;7.30;;;;;;;14.06;57.36;97805.00;5072193;28;20049;-53
2023/01/17 03:19:47;;;;;;;12.15;7.97;;;;;;;14.10;57.00;97810.88;5072197;28;20051;-55
2023/01/17 03:22:15;;;;;;;12.73;7.72;;;;;;;14.09;57.53;97810.06;5072030;28;20432;-54
2023/01/17 03:24:43;;;;;;;11.80;7.45;;;;;;;14.08;57.18;97803.00;5072069;28;20072;-52
2023/01/17 03:27:11;;;;;;;11.30;7.20;;;;;;;14.07;57.45;97801.31;5071925;28;20136;-52
2023/01/17 03:29:39;;;;;;;11.32;7.05;;;;;;;14.06;57.50;97794.28;5071985;28;20051;-53
2023/01/17 03:32:07;;;;;;;12.20;7.28;;;;;;;14.03;57.69;97790.13;5071871;28;20040;-53
2023/01/17 03:34:37;;;;;;;10.43;6.80;;;;;;;14.02;57.48;97793.81;5071921;28;20048;-54
2023/01/17 03:37:06;;;;;;;11.10;7.20;;;;;;;14.02;57.84;97782.25;5071702;28;20052;-52
2023/01/17 03:39:34;;;;;;;11.40;7.22;;;;;;;14.01;57.59;97785.97;5070468;28;20048;-53
2023/01/17 03:42:02;;;;;;;10.52;6.82;;;;;;;14.00;57.92;97776.25;5071784;28;20048;-52
2023/01/17 03:44:30;;;;;;;10.18;7.25;;;;;;;13.98;57.70;97767.53;5070525;28;20049;-52
2023/01/17 03:46:58;;;;;;;11.57;7.40;;;;;;;13.98;57.56;97772.88;5071654;28;20123;-52
2023/01/17 03:49:26;;;;;;;10.60;7.28;;;;;;;13.95;57.80;97767.88;5071660;28;20052;-54
2023/01/17 03:51:56;;;;;;;10.65;6.68;;;;;;;13.94;57.72;97774.25;5071660;28;20047;-54
2023/01/17 03:54:24;;;;;;;10.82;7.15;;;;;;;13.94;57.67;97767.03;5071616;28;20040;-53
2023/01/17 03:56:52;;;;;;;10.57;7.07;;;;;;;13.88;57.89;97753.50;5072022;28;20044;-52
2023/01/17 03:59:20;;;;;;;12.40;7.13;;;;;;;13.92;57.44;97766.38;5071660;28;20409;-52
2023/01/17 04:01:48;;;;;;;11.18;7.10;;;;;;;13.91;57.63;97758.53;5071569;28;20059;-52
2023/01/17 04:04:17;;;;;;;10.60;7.07;;;;;;;13.90;57.56;97748.81;5071531;28;20124;-52
2023/01/17 04:06:46;;;;;;;10.27;7.03;;;;;;;13.87;57.80;97762.53;5071522;28;20102;-53
2023/01/17 04:09:16;;;;;;;9.95;6.65;;;;;;;13.87;57.78;97757.19;5070192;28;20048;-55
2023/01/17 04:11:44;;;;;;;10.02;6.68;;;;;;;13.87;57.74;97763.38;5071444;28;20040;-52
2023/01/17 04:14:12;;;;;;;11.05;7.00;;;;;;;13.86;57.84;97752.84;5071472;28;20128;-51
2023/01/17 04:16:40;;;;;;;10.23;6.45;;;;;;;13.85;57.83;97759.22;5071428;28;20059;-51
2023/01/17 04:19:10;;;;;;;9.50;5.88;;;;;;;13.84;57.80;97763.75;5071428;28;20052;-53
2023/01/17 04:21:38;;;;;;;10.32;6.45;;;;;;;13.83;57.98;97761.25;5071406;28;20102;-52
2023/01/17 04:24:07;;;;;;;9.27;6.25;;;;;;;13.81;57.82;97761.41;5071395;28;20489;-52
2023/01/17 04:26:36;;;;;;;9.43;6.22;;;;;;;13.82;57.68;97762.25;5071341;28;20074;-54
2023/01/17 04:29:04;;;;;;;10.25;6.40;;;;;;;13.80;57.83;97770.47;5075001;28;20417;-53
2023/01/17 04:31:32;;;;;;;9.60;5.90;;;;;;;13.78;57.87;97760.91;5075045;28;20048;-52
2023/01/17 04:34:01;;;;;;;9.20;6.53;;;;;;;13.74;58.06;97763.09;5075038;28;20044;-52
2023/01/17 04:36:29;;;;;;;9.35;6.18;;;;;;;13.78;57.97;97768.94;5074999;28;20044;-52
2023/01/17 04:38:57;;;;;;;8.75;5.97;;;;;;;13.79;58.15;97759.88;5074972;28;20383;-52
2023/01/17 04:41:25;;;;;;;9.75;6.28;;;;;;;13.81;58.37;97757.91;5075271;28;20040;-53
2023/01/17 04:43:54;;;;;;;8.55;5.63;;;;;;;13.86;58.75;97760.88;5074871;28;20044;-50
2023/01/17 04:46:22;;;;;;;9.45;5.55;;;;;;;13.90;58.97;97755.00;5074668;28;20365;-51
2023/01/17 04:48:51;;;;;;;9.57;5.72;;;;;;;13.99;59.15;97761.16;5074846;28;20404;-53
2023/01/17 04:51:19;;;;;;;9.02;5.78;;;;;;;14.08;59.16;97765.47;5074558;28;20055;-53
2023/01/17 04:53:47;;;;;;;7.35;5.25;;;;;;;14.16;59.04;97765.44;5074674;28;20051;-51
2023/01/17 04:56:15;;;;;;;7.18;4.97;;;;;;;14.25;58.97;97766.22;5074656;28;20051;-54
2023/01/17 04:58:43;;;;;;;7.57;5.10;;;;;;;14.33;59.00;97760.81;5074523;28;20090;-52
2023/01/17 05:01:13;;;;;;;8.73;5.28;;;;;;;14.45;58.96;97759.44;5074605;28;20046;-51
2023/01/17 05:03:41;;;;;;;7.88;5.03;;;;;;;14.50;58.81;97751.72;5074656;28;20049;-51
2023/01/17 05:06:10;;;;;;;7.53;5.07;;;;;;;14.65;58.83;97764.34;5073057;28;20048;-51
2023/01/17 05:08:38;;;;;;;7.72;4.85;;;;;;;14.74;58.70;97761.41;5074439;28;20425;-52
2023/01/17 05:11:06;;;;;;;7.68;4.60;;;;;;;14.82;58.68;97766.72;5074235;28;20076;-51
2023/01/17 05:13:35;;;;;;;7.63;5.00;;;;;;;14.93;58.60;97764.63;5074306;28;20063;-53
2023/01/17 05:16:04;;;;;;;8.23;4.88;;;;;;;15.00;58.38;97762.91;5074181;28;20036;-50
2023/01/17 05:18:33;;;;;;;7.57;4.60;;;;;;;15.09;58.34;97759.97;5074245;28;20440;-52
2023/01/17 05:21:02;;;;;;;7.60;5.07;;;;;;;15.17;58.22;97756.41;5074012;28;20045;-53
2023/01/17 05:23:31;;;;;;;6.82;4.30;;;;;;;15.26;58.20;97754.47;5074221;28;20409;-51
2023/01/17 05:25:59;;;;;;;7.93;4.60;;;;;;;15.35;58.26;97748.00;5073968;28;20045;-53
2023/01/17 05:28:28;;;;;;;7.38;4.68;;;;;;;15.47;57.93;97754.59;5073906;28;20095;-53
2023/01/17 05:30:56;;;;;;;7.65;4.30;;;;;;;15.55;57.88;97759.06;5074068;28;20051;-55
2023/01/17 05:33:24;;;;;;;6.88;4.35;;;;;;;15.64;57.70;97760.66;5073950;28;20045;-52
2023/01/17 05:35:54;;;;;;;6.63;4.35;;;;;;;15.72;57.52;97755.16;5073716;28;20040;-51
2023/01/17 05:38:22;;;;;;;7.18;4.20;;;;;;;15.76;57.53;97761.03;5073314;28;20119;-54
2023/01/17 05:40:50;;;;;;;7.65;4.15;;;;;;;15.80;57.47;97757.78;5073744;28;20481;-53
2023/01/17 05:43:19;;;;;;;6.82;4.15;;;;;;;15.81;57.34;97758.59;5073717;28;20464;-53
2023/01/17 05:45:49;;;;;;;7.13;4.32;;;;;;;15.81;57.48;97770.19;5073498;28;20040;-53
2023/01/17 05:48:17;;;;;;;6.45;3.80;;;;;;;15.80;57.29;97768.53;5073491;28;20049;-54
2023/01/17 05:50:45;;;;;;;6.65;4.30;;;;;;;15.79;57.23;97788.34;5072268;28;20064;-52
2023/01/17 05:53:16;;;;;;;6.40;4.20;;;;;;;15.77;57.28;97790.41;5073617;28;20041;-51
2023/01/17 05:55:44;;;;;;;7.40;4.18;;;;;;;15.77;57.20;97795.78;5073521;28;20086;-51
2023/01/17 05:58:15;;;;;;;6.28;3.90;;;;;;;15.73;57.16;97806.06;5073388;28;20037;-52
2023/01/17 06:00:43;;;;;;;6.22;3.90;;;;;;;15.70;57.34;97802.91;5073429;28;20080;-51
2023/01/17 06:03:12;;;;;;;6.30;4.03;;;;;;;15.67;57.38;97811.34;5073126;28;20074;-53
2023/01/17 06:05:41;;;;;;;7.22;4.30;;;;;;;15.65;57.21;97810.69;5066851;28;20079;-52
2023/01/17 06:08:10;;;;;;;6.60;3.97;;;;;;;15.62;57.29;97813.72;5067688;28;20128;-52
2023/01/17 06:10:39;;;;;;;6.47;4.03;;;;;;;15.59;57.09;97819.44;5073031;28;20045;-52
2023/01/17 06:13:14;;;;;;;7.45;3.97;;;;;;;15.57;57.34;97824.19;5072954;28;20517;-53
2023/01/17 06:15:43;;;;;;;6.30;3.88;;;;;;;15.55;57.31;97823.53;5073023;28;20118;-55
2023/01/17 06:18:13;;;;;;;6.00;3.65;;;;;;;15.50;57.18;97821.38;5072908;28;20040;-56
2023/01/17 06:20:42;;;;;;;7.45;4.10;;;;;;;15.49;57.17;97826.94;5067017;28;20382;-53
2023/01/17 06:23:13;;;;;;;5.80;3.88;;;;;;;15.43;57.11;97829.31;5052831;28;20045;-55
2023/01/17 06:25:44;;;;;;;6.20;4.05;;;;;;;15.41;57.05;97823.28;5052753;28;20049;-53
2023/01/17 06:28:14;;;;;;;5.47;3.63;;;;;;;15.38;57.29;97817.47;5052560;28;20057;-54
2023/01/17 06:30:43;;;;;;;6.05;3.88;;;;;;;15.34;57.25;97826.88;5052614;28;20083;-53
2023/01/17 06:33:12;;;;;;;8.43;3.90;;;;;;;15.31;57.17;97840.69;5052402;28;20055;-53
2023/01/17 06:35:46;;;;;;;6.20;3.78;;;;;;;15.27;57.08;97837.53;5052541;28;20398;-52
2023/01/17 06:38:15;;;;;;;6.28;3.65;;;;;;;15.24;57.18;97837.03;5052644;28;20041;-53
2023/01/17 06:40:44;;;;;;;5.95;3.60;;;;;;;15.18;57.13;97843.97;5051203;28;20407;-54
2023/01/17 06:43:12;;;;;;;6.00;3.58;;;;;;;15.14;56.97;97851.53;5052361;28;20383;-53
2023/01/17 06:45:40;;;;;;;6.00;3.40;;;;;;;15.12;56.91;97863.47;5052443;28;20044;-54
2023/01/17 06:48:08;;;;;;;5.50;3.13;;;;;;;15.07;56.62;97864.03;5052611;28;20064;-53
2023/01/17 06:50:37;;;;;;;6.15;3.25;;;;;;;15.00;56.52;97863.06;5051577;28;20461;-53
2023/01/17 06:53:06;;;;;;;4.88;3.30;;;;;;;14.99;56.51;97879.34;5052167;28;20049;-54
2023/01/17 06:55:35;;;;;;;5.40;3.15;;;;;;;14.96;56.50;97891.28;5052138;28;20120;-53
2023/01/17 06:58:04;;;;;;;7.03;3.30;;;;;;;14.93;56.52;97899.69;5052243;28;20048;-53
2023/01/17 07:00:33;;;;;;;5.18;2.97;;;;;;;14.87;56.38;97901.25;5051975;28;20478;-51
2023/01/17 07:03:02;;;;;;;5.45;3.00;;;;;;;14.81;56.67;97906.47;5051864;28;20078;-54
2023/01/17 07:05:31;;;;;;;4.53;2.75;;;;;;;14.78;56.59;97913.03;5050454;28;20462;-52
2023/01/17 07:07:59;;;;;;;5.38;2.90;;;;;;;14.71;56.53;97914.72;5051745;28;20283;-54
2023/01/17 07:10:27;;;;;;;5.63;3.13;;;;;;;14.68;56.73;97923.13;5051688;28;20044;-53
2023/01/17 07:12:59;;;;;;;5.15;2.90;;;;;;;14.66;57.06;97925.13;5051549;28;20128;-52
2023/01/17 07:15:29;;;;;;;4.63;2.90;;;;;;;14.60;56.69;97920.50;5050341;28;20045;-53
2023/01/17 07:18:00;;;;;;;5.90;3.00;;;;;;;14.58;56.44;97928.72;5050222;28;20057;-54
2023/01/17 07:20:31;;;;;;;4.60;2.90;;;;;;;14.58;56.82;97935.94;5051534;28;20049;-53
2023/01/17 07:22:59;;;;;;;5.38;2.88;;;;;;;14.57;56.97;97936.91;5051469;28;20433;-54
2023/01/17 07:25:27;;;;;;;4.82;2.70;;;;;;;14.61;57.19;97932.88;5050135;28;20053;-52
2023/01/17 07:27:56;;;;;;;4.28;2.58;;;;;;;14.66;57.28;97935.03;5051245;28;20053;-51
2023/01/17 07:30:25;;;;;;;4.95;2.90;;;;;;;14.71;57.37;97944.25;5051445;28;20444;-52
2023/01/17 07:32:55;;;;;;;4.88;2.78;;;;;;;14.79;57.33;97949.59;5051440;28;20179;-54
2023/01/17 07:35:25;;;;;;;3.83;2.28;;;;;;;14.86;57.21;97947.00;5051243;28;20048;-54
2023/01/17 07:37:54;;;;;;;4.97;2.40;;;;;;;14.88;57.22;97942.34;5051482;28;20052;-52
2023/01/17 07:40:23;;;;;;;4.32;2.35;;;;;;;15.00;57.02;97954.34;5051229;28;20051;-53
2023/01/17 07:42:51;;;;;;;3.45;2.17;;;;;;;15.07;56.97;97959.84;5051397;28;20052;-55
2023/01/17 07:45:20;;;;;;;4.18;2.20;;;;;;;15.13;56.86;97964.50;5049982;28;20096;-55
2023/01/17 07:47:49;;;;;;;3.67;2.25;;;;;;;15.24;56.89;97966.78;5049903;28;20510;-54
2023/01/17 07:50:18;;;;;;;3.70;2.35;;;;;;;15.31;56.82;97986.53;5051299;28;20053;-52
2023/01/17 07:52:49;;;;;;;4.70;2.38;;;;;;;15.39;56.71;97997.25;5050083;28;20083;-53
2023/01/17 07:55:18;;;;;;;4.60;2.10;;;;;;;15.49;56.69;98006.94;5051194;28;20131;-53
2023/01/17 07:57:49;;;;;;;3.78;2.30;;;;;;;15.54;56.45;98007.22;5051154;28;20057;-53
2023/01/17 08:00:18;;;;;;;3.63;2.22;;;;;;;15.59;56.47;98007.53;5051113;28;20441;-51
2023/01/17 08:02:46;;;;;;;3.42;2.22;;;;;;;15.65;56.42;98007.69;5054875;28;20045;-54
2023/01/17 08:05:14;;;;;;;4.03;2.10;;;;;;;15.72;56.30;98018.53;5055148;28;20049;-53
2023/01/17 08:07:44;;;;;;;3.40;1.92;;;;;;;15.77;56.18;98012.66;5053750;28;20053;-53
2023/01/17 08:10:16;;;;;;;3.42;1.92;;;;;;;15.81;55.99;98022.00;5054977;28;20127;-52
2023/01/17 08:12:45;;;;;;;3.50;2.08;;;;;;;15.77;56.10;98010.78;5055049;28;20063;-52
2023/01/17 08:15:14;;;;;;;3.35;1.83;;;;;;;15.83;56.00;98025.38;5055171;28;20041;-54
2023/01/17 08:17:45;;;;;;;3.97;1.90;;;;;;;15.81;55.99;98027.38;5055081;28;20457;-52
2023/01/17 08:20:14;;;;;;;2.97;1.85;;;;;;;15.80;55.91;98034.63;5055072;28;20037;-52
2023/01/17 08:22:43;;;;;;;2.50;1.60;;;;;;;15.77;56.06;98042.22;5054693;28;20075;-56
2023/01/17 08:25:12;;;;;;;3.78;1.77;;;;;;;15.76;55.95;98044.06;5054709;28;20041;-53
2023/01/17 08:27:40;;;;;;;3.70;1.77;;;;;;;15.74;55.83;98048.78;5053069;28;20083;-53
2023/01/17 08:30:10;;;;;;;3.17;1.75;;;;;;;15.68;55.88;98041.44;5054706;28;20055;-54
2023/01/17 08:32:41;;;;;;;2.88;1.75;;;;;;;15.70;55.78;98042.09;5054887;28;20045;-53
2023/01/17 08:35:10;;;;;;;3.60;1.70;;;;;;;15.67;55.82;98043.28;5053335;28;20041;-55
2023/01/17 08:37:38;;;;;;;3.33;1.60;;;;;;;15.61;55.80;98045.84;5053299;28;20049;-52
2023/01/17 08:40:10;;;;;;;2.78;1.58;;;;;;;15.60;55.76;98060.25;5054229;28;20104;-52
2023/01/17 08:42:39;;;;;;;3.60;1.60;;;;;;;15.58;55.78;98064.97;5054558;28;20045;-52
2023/01/17 08:45:09;;;;;;;3.25;1.50;;;;;;;15.53;55.46;98067.34;5054501;28;20518;-54
2023/01/17 08:47:38;;;;;;;2.03;1.30;;;;;;;15.52;55.46;98063.81;5054198;28;20049;-53
2023/01/17 08:50:06;;;;;;;2.33;1.40;;;;;;;15.50;55.55;98062.34;5054202;28;20536;-51
2023/01/17 08:52:35;;;;;;;3.45;1.30;;;;;;;15.45;55.64;98055.66;5052765;28;20049;-53
2023/01/17 08:55:05;;;;;;;1.92;1.30;;;;;;;15.41;55.52;98053.47;5054178;28;20439;-51
2023/01/17 08:57:35;;;;;;;1.75;1.25;;;;;;;15.38;55.48;98060.03;5054106;28;20052;-53
2023/01/17 09:00:04;;;;;;;1.85;1.00;;;;;;;15.34;55.53;98063.25;5054315;28;20071;-55
2023/01/17 09:02:32;;;;;;;2.25;1.20;;;;;;;15.32;55.53;98066.09;5052811;28;20494;-54
2023/01/17 09:05:01;;;;;;;1.98;1.30;;;;;;;15.28;55.64;98070.16;5054051;28;20489;-55
2023/01/17 09:07:29;;;;;;;1.77;1.08;;;;;;;15.26;55.61;98082.94;5054057;28;20124;-54
2023/01/17 09:09:57;;;;;;;3.55;1.50;;;;;;;15.24;55.73;98076.88;5054215;28;20375;-55
2023/01/17 09:12:26;;;;;;;2.28;1.42;;;;;;;15.20;55.70;98083.63;5052406;28;20083;-53
2023/01/17 09:14:55;;;;;;;2.38;1.33;;;;;;;15.18;55.87;98083.81;5054142;28;20053;-55
2023/01/17 09:17:23;;;;;;;2.08;1.30;;;;;;;15.15;55.88;98089.53;5054212;28;20047;-55
2023/01/17 09:19:52;;;;;;;2.10;1.23;;;;;;;15.15;56.02;98091.34;5054085;28;20114;-54
2023/01/17 09:22:20;;;;;;;2.25;1.27;;;;;;;15.11;56.27;98088.19;5054103;28;20085;-53
2023/01/17 09:24:48;;;;;;;1.85;1.20;;;;;;;15.11;56.76;98087.34;5054145;28;20482;-55
2023/01/17 09:27:16;;;;;;;2.50;1.30;;;;;;;15.10;56.65;98089.19;5053894;28;20061;-55
2023/01/17 09:29:44;;;;;;;2.38;1.25;;;;;;;15.07;56.84;98083.34;5053944;28;20049;-53
2023/01/17 09:32:16;;;;;;;2.33;1.20;;;;;;;15.07;57.16;98084.19;5053867;28;20081;-54
2023/01/17 09:34:44;;;;;;;2.83;1.10;;;;;;;15.07;57.13;98088.72;5053736;28;20164;-55
2023/01/17 09:37:12;;;;;;;1.90;1.10;;;;;;;15.08;56.85;98096.59;5052488;28;20068;-54
2023/01/17 09:39:40;;;;;;;1.67;1.00;;;;;;;15.07;56.79;98099.47;5053687;28;20049;-52
2023/01/17 09:42:19;;;;;;;1.50;0.95;;;;;;;15.03;56.56;98098.94;5053814;28;20056;-54
2023/01/17 09:44:50;;;;;;;2.22;1.20;;;;;;;15.09;56.35;98100.13;5053678;28;20052;-52
2023/01/17 09:47:30;;;;;;;1.80;0.98;;;;;;;15.09;56.39;98102.81;5052364;28;20045;-53
2023/01/17 09:50:05;;;;;;;1.77;1.08;;;;;;;15.11;56.31;98112.34;5052007;28;20419;-53
2023/01/17 09:52:33;;;;;;;1.58;1.02;;;;;;;15.12;56.23;98121.25;5053480;28;20120;-52
2023/01/17 09:55:02;;;;;;;1.33;0.90;;;;;;;15.15;56.06;98128.94;5053556;28;20045;-51
2023/01/17 09:57:46;;;;;;;1.98;1.00;;;;;;;15.14;56.06;98121.91;5053388;28;20041;-54
2023/01/17 10:00:34;;;;;;;1.63;1.10;;;;;;;15.23;55.99;98134.28;5053548;28;20057;-52
2023/01/17 10:03:26;;;;;;;1.67;0.98;;;;;;;15.30;55.88;98137.13;5053296;28;20080;-54
2023/01/17 10:06:07;;;;;;;1.00;0.70;;;;;;;15.35;55.86;98143.66;5051710;28;20055;-54
2023/01/17 10:08:53;;;;;;;2.75;1.00;;;;;;;15.42;55.80;98141.94;5052906;28;20041;-55
2023/01/17 10:11:36;;;;;;;1.95;0.98;;;;;;;15.50;55.78;98153.69;5051786;28;20068;-54
2023/01/17 10:14:25;;;;;;;1.25;0.90;;;;;;;15.55;55.67;98145.94;5051775;28;20053;-52
2023/01/17 10:16:58;;;;;;;2.15;1.00;;;;;;;15.64;55.57;98142.25;5051777;28;20076;-53
2023/01/17 10:19:40;;;;;;;2.08;1.10;;;;;;;15.72;55.27;98136.81;5051529;28;20057;-52
2023/01/17 10:22:29;;;;;;;1.45;1.05;;;;;;;15.84;55.17;98151.53;5052780;28;20482;-53
2023/01/17 10:25:20;;;;;;;1.08;0.80;;;;;;;16.01;54.94;98158.47;5051701;28;20140;-53
2023/01/17 10:27:57;;;;;;;1.13;0.70;;;;;;;16.14;54.49;98149.00;5050419;28;20049;-51
2023/01/17 10:30:33;;;;;;;1.77;1.00;;;;;;;16.24;53.70;98142.38;5052515;28;20358;-53
2023/01/17 10:33:09;;;;;;;1.63;1.00;;;;;;;16.30;53.20;98138.94;5051286;28;20044;-54
2023/01/17 10:35:49;;;;;;;1.85;1.15;;;;;;;16.37;53.19;98147.16;5052863;28;20044;-50
2023/01/17 10:38:19;;;;;;;1.27;0.73;;;;;;;16.37;53.06;98143.63;5052940;28;20152;-53
2023/01/17 10:40:53;;;;;;;1.58;0.90;;;;;;;16.38;53.15;98140.75;5052683;28;20108;-54
2023/01/17 10:43:28;;;;;;;2.03;1.00;;;;;;;16.37;53.17;98131.00;5052667;28;20045;-55
2023/01/17 10:45:57;;;;;;;1.85;1.00;;;;;;;16.36;53.14;98129.31;5052509;28;20484;-53
2023/01/17 10:48:38;;;;;;;1.77;0.98;;;;;;;16.35;53.29;98118.75;5052414;28;20049;-54
2023/01/17 10:51:18;;;;;;;2.75;0.85;;;;;;;16.29;53.33;98113.06;5051042;28;20053;-52
2023/01/17 10:54:01;;;;;;;1.73;0.90;;;;;;;16.33;53.60;98118.09;5052303;28;20524;-52
2023/01/17 10:56:30;;;;;;;1.50;0.90;;;;;;;16.32;53.46;98119.97;5052425;28;20051;-52
2023/01/17 10:59:15;;;;;;;1.52;1.00;;;;;;;16.31;53.55;98107.53;5052299;28;20490;-53
2023/01/17 11:01:44;;;;;;;1.33;0.70;;;;;;;16.33;54.19;98108.19;5052295;28;20405;-52
2023/01/17 11:04:18;;;;;;;1.10;0.88;;;;;;;16.33;54.42;98102.78;5052289;28;20049;-54
2023/01/17 11:07:08;;;;;;;2.15;1.05;;;;;;;16.33;54.42;98097.41;5050729;28;20107;-54
2023/01/17 11:09:38;;;;;;;1.98;0.90;;;;;;;16.35;54.60;98087.31;5052155;28;20274;-52
2023/01/17 11:12:18;;;;;;;1.30;0.82;;;;;;;16.40;54.55;98082.19;5052065;28;20127;-53
2023/01/17 11:15:02;;;;;;;1.20;0.80;;;;;;;16.44;54.57;98070.06;5052118;28;20076;-53
2023/01/17 11:17:31;;;;;;;1.10;0.70;;;;;;;16.45;54.62;98062.84;5050834;28;20041;-51
2023/01/17 11:20:18;;;;;;;1.58;1.00;;;;;;;16.47;54.41;98082.31;5050612;28;20051;-51
2023/01/17 11:23:03;;;;;;;1.50;0.80;;;;;;;16.51;54.45;98080.94;5051819;28;20120;-52
2023/01/17 11:25:33;;;;;;;2.00;1.00;;;;;;;16.52;54.30;98079.94;5051729;28;20044;-52
2023/01/17 11:28:05;;;;;;;0.60;0.57;;;;;;;16.54;54.24;98073.34;5051611;28;20080;-51
2023/01/17 11:30:34;;;;;;;1.38;0.80;;;;;;;16.55;54.40;98058.88;5050390;28;20055;-53
2023/01/17 11:33:22;;;;;;;1.27;0.65;;;;;;;16.59;54.45;98065.53;5051698;28;20045;-51
2023/01/17 11:35:50;;;;;;;1.65;1.08;;;;;;;16.63;54.46;98055.25;5051304;28;20122;-50
2023/01/17 11:38:21;;;;;;;1.23;0.75;;;;;;;16.65;54.55;98042.44;5051679;28;20059;-51
2023/01/17 11:40:52;;;;;;;1.23;0.80;;;;;;;16.70;54.64;98033.88;5051719;28;20049;-52
2023/01/17 11:43:23;;;;;;;1.77;0.93;;;;;;;16.73;54.42;98039.72;5051843;28;20044;-52
2023/01/17 11:46:03;;;;;;;1.50;0.80;;;;;;;16.76;54.72;98030.41;5051778;28;20126;-52
2023/01/17 11:48:36;;;;;;;0.98;0.75;;;;;;;16.80;54.41;98029.03;5051509;28;20060;-52
2023/01/17 11:51:11;;;;;;;;;;;;;;;16.87;54.76;98036.16;5051964;28;20055;-51
2023/01/17 11:53:46;;;;;;;1.15;0.70;;;;;;;16.91;54.50;98047.41;5051494;28;19928;-51
2023/01/17 11:56:33;;;;;;;1.58;0.88;;;;;;;16.96;54.55;98042.28;5051601;28;20049;-51
2023/01/17 11:59:18;;;;;;;1.77;0.77;;;;;;;17.00;54.49;98045.47;5051465;28;20119;-52
2023/01/17 12:01:56;;;;;;;1.23;0.68;;;;;;;17.01;54.66;98050.66;5051505;28;20052;-53
2023/01/17 12:04:28;;;;;;;3.10;0.80;;;;;;;17.07;54.73;98068.75;5051561;28;20055;-52
2023/01/17 12:07:09;;;;;;;1.30;0.82;;;;;;;17.10;54.67;98072.97;5051481;28;20071;-51
2023/01/17 12:09:45;;;;;;;1.38;0.65;;;;;;;17.11;54.63;98072.75;5051383;28;20045;-51
2023/01/17 12:15:23;;;;;;;1.52;0.77;;;;;;;17.16;54.89;98083.81;5051523;28;20461;-51
2023/01/17 12:18:13;;;;;;;1.27;0.70;;;;;;;17.14;54.96;98080.47;5050137;28;20071;-52
2023/01/17 12:20:51;;;;;;;1.95;0.85;;;;;;;17.16;54.93;98082.97;5050094;28;20132;-52
2023/01/17 12:23:35;;;;;;;0.75;0.70;;;;;;;17.15;54.89;98082.13;5051385;28;20045;-49
2023/01/17 12:26:22;;;;;;;1.73;0.82;;;;;;;17.15;54.68;98076.75;5049902;28;20069;-51
2023/01/17 12:29:09;;;;;;;1.40;0.85;;;;;;;17.13;54.87;98078.78;5049918;28;20107;-52
2023/01/17 12:31:42;;;;;;;1.75;0.80;;;;;;;17.11;54.96;98078.16;5050079;28;20087;-50
2023/01/17 12:34:21;;;;;;;1.58;0.70;;;;;;;17.06;54.85;98072.47;5051295;28;20120;-50
2023/01/17 12:36:55;;;;;;;1.98;0.70;;;;;;;17.04;54.89;98063.75;5050001;28;20569;-52
2023/01/17 12:39:30;;;;;;;2.13;0.80;;;;;;;17.08;54.91;98075.84;5049809;28;20235;-51
2023/01/17 12:42:05;;;;;;;1.60;0.80;;;;;;;17.05;55.08;98080.75;5051269;28;20044;-50
2023/01/17 12:44:45;;;;;;;1.48;0.80;;;;;;;17.02;55.10;98078.44;5050950;28;20045;-50
2023/01/17 12:47:15;;;;;;;1.17;0.70;;;;;;;16.97;55.24;98068.19;5049610;28;20091;-51
2023/01/17 12:49:49;;;;;;;1.05;0.73;;;;;;;16.96;55.04;98074.63;5054313;28;20045;-51
2023/01/17 12:52:23;;;;;;;1.20;0.45;;;;;;;16.93;55.18;98069.59;5055029;28;20068;-50
2023/01/17 12:54:58;;;;;;;1.30;0.55;;;;;;;16.84;55.15;98070.72;5054600;28;20077;-51
2023/01/17 12:57:33;;;;;;;0.98;0.65;;;;;;;16.84;55.27;98068.03;5069600;28;20045;-52
2023/01/17 13:00:06;;;;;;;1.48;0.77;;;;;;;16.82;55.05;98070.91;5054349;28;20044;-54
2023/01/17 13:02:38;;;;;;;1.10;0.67;;;;;;;16.79;54.88;98070.41;5052917;28;20128;-51
2023/01/17 13:05:14;;;;;;;1.83;1.00;;;;;;;16.75;54.83;98069.13;5054322;28;20638;-51
2023/01/17 13:07:47;;;;;;;2.15;0.98;;;;;;;16.71;54.72;98063.28;5052998;28;20078;-52
2023/01/17 13:10:32;;;;;;;1.02;0.80;;;;;;;16.69;54.20;98064.47;5053025;28;20131;-52
2023/01/17 13:13:15;;;;;;;1.40;0.90;;;;;;;16.64;54.44;98061.47;5069626;28;20064;-50
2023/01/17 13:15:44;;;;;;;1.48;0.85;;;;;;;16.62;54.19;98061.66;5054359;28;20048;-51
2023/01/17 13:18:16;;;;;;;2.15;0.98;;;;;;;16.58;54.17;98063.88;5054194;28;20525;-51
2023/01/17 13:21:05;;;;;;;1.52;0.90;;;;;;;16.54;54.22;98061.75;5052998;28;20080;-52